Time;durP1;ratioP1;P1;durP2;ratioP2;P2;SDS_P1;SDS_P2;PMS_P1;PMS_P2;Temp;Humidity;BMP_temperature;BMP_pressure;BME280_temperature;BME280_humidity;BME280_pressure;Samples;Min_cycle;Max_cycle;Signal;HPM_P1;HPM_P2
2022/07/02 00:01:00;;;;;;;6.28;1.05;;;;;;;;;;5080361;28;20239;-16
2022/07/02 00:03:30;;;;;;;9.23;0.90;;;;;;;;;;5072730;28;20433;-16
2022/07/02 00:05:59;;;;;;;5.50;1.33;;;;;;;;;;5077273;28;20467;-15
2022/07/02 00:08:26;;;;;;;10.50;1.38;;;;;;;;;;5072744;28;20237;-16
2022/07/02 00:10:54;;;;;;;9.60;0.93;;;;;;;;;;5073024;28;20232;-17
2022/07/02 00:13:21;;;;;;;12.43;1.02;;;;;;;;;;5072731;28;20230;-16
2022/07/02 00:15:49;;;;;;;7.25;1.20;;;;;;;;;;5074231;28;21051;-16
2022/07/02 00:18:17;;;;;;;6.68;1.42;;;;;;;;;;5072478;28;20225;-17
2022/07/02 00:20:45;;;;;;;1.95;0.90;;;;;;;;;;5072878;28;20225;-16
2022/07/02 00:23:12;;;;;;;9.60;1.10;;;;;;;;;;5073951;28;20237;-17
2022/07/02 00:25:40;;;;;;;2.00;1.10;;;;;;;;;;5075678;28;21064;-17
2022/07/02 00:28:08;;;;;;;2.83;1.08;;;;;;;;;;5074575;28;21193;-15
2022/07/02 00:30:35;;;;;;;2.38;1.15;;;;;;;;;;5073524;28;20978;-16
2022/07/02 00:33:02;;;;;;;3.22;0.90;;;;;;;;;;5077432;28;20255;-16
2022/07/02 00:35:31;;;;;;;2.05;1.02;;;;;;;;;;5078027;28;20315;-16
2022/07/02 00:37:58;;;;;;;1.33;1.00;;;;;;;;;;5074197;28;20237;-16
2022/07/02 00:40:26;;;;;;;3.85;1.30;;;;;;;;;;5081370;28;20236;-16
2022/07/02 00:42:53;;;;;;;1.95;1.02;;;;;;;;;;5083778;28;20225;-17
2022/07/02 00:45:21;;;;;;;3.20;1.10;;;;;;;;;;5082760;28;20229;-17
2022/07/02 00:47:48;;;;;;;1.95;1.20;;;;;;;;;;5072379;28;20237;-17
2022/07/02 00:50:15;;;;;;;2.22;1.20;;;;;;;;;;5084087;28;20235;-17
2022/07/02 00:52:44;;;;;;;1.90;0.90;;;;;;;;;;5077559;28;20275;-16
2022/07/02 00:55:11;;;;;;;7.28;1.48;;;;;;;;;;5074307;28;20241;-16
2022/07/02 00:57:39;;;;;;;2.28;1.30;;;;;;;;;;5074632;28;20233;-17
2022/07/02 01:00:07;;;;;;;3.75;1.60;;;;;;;;;;5072555;28;20998;-15
2022/07/02 01:02:35;;;;;;;3.03;1.60;;;;;;;;;;5075904;28;20738;-16
2022/07/02 01:05:02;;;;;;;5.90;2.03;;;;;;;;;;5074758;28;20225;-15
2022/07/02 01:07:30;;;;;;;6.65;1.85;;;;;;;;;;5071614;28;20245;-17
2022/07/02 01:12:43;;;;;;;2.78;1.65;;;;;;;;;;5071904;28;20232;-16
2022/07/02 01:15:11;;;;;;;1.73;1.52;;;;;;;;;;5075852;28;20245;-17
2022/07/02 01:17:38;;;;;;;2.72;1.75;;;;;;;;;;5073470;28;20226;-17
2022/07/02 01:20:06;;;;;;;2.88;1.75;;;;;;;;;;5073859;28;20233;-17
2022/07/02 01:22:35;;;;;;;3.90;1.70;;;;;;;;;;5072831;28;20240;-16
2022/07/02 01:25:02;;;;;;;2.03;1.60;;;;;;;;;;5079989;28;20612;-17
2022/07/02 01:27:29;;;;;;;2.70;1.55;;;;;;;;;;5073514;28;20267;-17
2022/07/02 01:29:57;;;;;;;4.30;1.90;;;;;;;;;;5075328;28;20267;-16
2022/07/02 01:32:24;;;;;;;2.03;1.55;;;;;;;;;;5075542;28;20220;-15
2022/07/02 01:34:52;;;;;;;4.75;2.13;;;;;;;;;;5072586;28;20245;-17
2022/07/02 01:37:20;;;;;;;2.72;1.80;;;;;;;;;;5075375;28;20236;-17
2022/07/02 01:39:49;;;;;;;2.67;1.80;;;;;;;;;;5072450;28;20226;-15
2022/07/02 01:42:16;;;;;;;2.63;1.60;;;;;;;;;;5079379;28;20233;-16
2022/07/02 01:44:44;;;;;;;3.55;1.70;;;;;;;;;;5073964;28;20225;-16
2022/07/02 01:47:12;;;;;;;2.85;1.30;;;;;;;;;;5075470;28;21092;-17
2022/07/02 01:49:39;;;;;;;4.72;1.85;;;;;;;;;;5073614;28;20972;-17
2022/07/02 01:52:07;;;;;;;3.45;2.10;;;;;;;;;;5077165;28;20229;-17
2022/07/02 01:54:34;;;;;;;5.40;1.85;;;;;;;;;;5071377;28;20237;-16
2022/07/02 01:57:03;;;;;;;2.17;1.60;;;;;;;;;;5073952;28;20704;-17
2022/07/02 01:59:30;;;;;;;4.03;1.75;;;;;;;;;;5083112;28;20225;-16
2022/07/02 02:01:58;;;;;;;3.63;1.90;;;;;;;;;;5077277;28;20234;-16
2022/07/02 02:04:25;;;;;;;3.53;2.20;;;;;;;;;;5076183;28;20232;-16
2022/07/02 02:06:53;;;;;;;2.42;1.70;;;;;;;;;;5072175;28;20235;-16
2022/07/02 02:09:20;;;;;;;3.40;1.90;;;;;;;;;;5081793;28;20229;-16
2022/07/02 02:11:47;;;;;;;3.55;1.88;;;;;;;;;;5072097;28;20225;-16
2022/07/02 02:14:17;;;;;;;2.90;2.00;;;;;;;;;;5071481;28;20240;-16
2022/07/02 02:16:44;;;;;;;4.18;2.05;;;;;;;;;;5071416;28;20248;-17
2022/07/02 02:19:11;;;;;;;3.85;1.80;;;;;;;;;;5076525;28;20225;-16
2022/07/02 02:21:39;;;;;;;3.28;1.95;;;;;;;;;;5074999;28;20238;-17
2022/07/02 02:24:06;;;;;;;3.03;1.95;;;;;;;;;;5073374;28;20225;-17
2022/07/02 02:26:34;;;;;;;2.42;1.85;;;;;;;;;;5083850;28;20665;-16
2022/07/02 02:29:01;;;;;;;3.05;2.10;;;;;;;;;;5072300;28;20229;-17
2022/07/02 02:31:30;;;;;;;3.33;2.10;;;;;;;;;;5074366;28;20225;-15
2022/07/02 02:33:57;;;;;;;2.55;2.05;;;;;;;;;;5073283;28;20233;-17
2022/07/02 02:36:25;;;;;;;3.90;2.00;;;;;;;;;;5073751;28;20229;-15
2022/07/02 02:38:52;;;;;;;3.22;2.00;;;;;;;;;;5083430;28;20236;-15
2022/07/02 02:41:19;;;;;;;2.90;2.28;;;;;;;;;;5073033;28;20233;-17
2022/07/02 02:43:47;;;;;;;4.35;2.33;;;;;;;;;;5075565;28;20235;-16
2022/07/02 02:46:14;;;;;;;4.10;2.30;;;;;;;;;;5071668;28;20284;-16
2022/07/02 02:48:43;;;;;;;4.57;2.38;;;;;;;;;;5068220;28;20784;-16
2022/07/02 02:51:13;;;;;;;3.78;2.17;;;;;;;;;;5084309;28;20714;-17
2022/07/02 02:53:42;;;;;;;3.10;2.42;;;;;;;;;;5081936;28;20260;-17
2022/07/02 02:56:09;;;;;;;2.30;2.00;;;;;;;;;;5070223;28;20234;-16
2022/07/02 02:58:37;;;;;;;4.57;2.10;;;;;;;;;;5083170;28;20225;-16
2022/07/02 03:01:04;;;;;;;3.53;2.20;;;;;;;;;;5079742;28;20245;-16
2022/07/02 03:03:32;;;;;;;4.28;1.88;;;;;;;;;;5070283;28;20225;-17
2022/07/02 03:06:01;;;;;;;2.72;2.10;;;;;;;;;;5072101;28;20789;-17
2022/07/02 03:08:28;;;;;;;2.92;1.83;;;;;;;;;;5071147;28;20238;-16
2022/07/02 03:10:55;;;;;;;3.47;2.15;;;;;;;;;;5073313;28;20229;-16
2022/07/02 03:13:23;;;;;;;3.28;2.30;;;;;;;;;;5071006;28;20233;-16
2022/07/02 03:15:50;;;;;;;4.28;2.05;;;;;;;;;;5077410;28;20241;-16
2022/07/02 03:18:18;;;;;;;2.90;2.00;;;;;;;;;;5071135;28;20226;-17
2022/07/02 03:20:53;;;;;;;2.75;1.80;;;;;;;;;;5073563;28;20229;-15
2022/07/02 03:23:21;;;;;;;3.75;2.30;;;;;;;;;;5070956;28;20229;-16
2022/07/02 03:25:49;;;;;;;3.90;2.08;;;;;;;;;;5071167;28;20217;-17
2022/07/02 03:28:16;;;;;;;3.35;1.95;;;;;;;;;;5071518;28;20237;-17
2022/07/02 03:30:43;;;;;;;3.03;2.00;;;;;;;;;;5077854;28;20228;-17
2022/07/02 03:33:11;;;;;;;3.40;1.90;;;;;;;;;;5076901;28;20237;-16
2022/07/02 03:35:38;;;;;;;3.58;1.92;;;;;;;;;;5074848;28;20247;-17
2022/07/02 03:38:06;;;;;;;3.15;2.17;;;;;;;;;;5074704;28;20225;-16
2022/07/02 03:40:34;;;;;;;5.03;2.03;;;;;;;;;;5073834;28;20945;-16
2022/07/02 03:43:02;;;;;;;3.33;1.95;;;;;;;;;;5078611;28;20281;-17
2022/07/02 03:45:29;;;;;;;2.53;1.65;;;;;;;;;;5074338;28;20221;-16
2022/07/02 03:47:56;;;;;;;2.80;1.65;;;;;;;;;;5077065;28;20241;-17
2022/07/02 03:50:24;;;;;;;2.78;1.80;;;;;;;;;;5074676;28;20232;-17
2022/07/02 03:52:51;;;;;;;4.05;1.80;;;;;;;;;;5075251;28;20236;-17
2022/07/02 03:55:23;;;;;;;3.15;1.98;;;;;;;;;;5075752;28;20989;-16
2022/07/02 03:57:52;;;;;;;2.35;1.85;;;;;;;;;;5074169;28;20225;-16
2022/07/02 04:00:19;;;;;;;2.83;2.00;;;;;;;;;;5075557;28;21038;-16
2022/07/02 04:02:47;;;;;;;2.63;1.88;;;;;;;;;;5075844;28;20715;-17
2022/07/02 04:05:14;;;;;;;4.85;2.05;;;;;;;;;;5077472;28;20221;-17
2022/07/02 04:07:41;;;;;;;2.33;1.60;;;;;;;;;;5075749;28;20229;-16
2022/07/02 04:10:09;;;;;;;3.15;1.45;;;;;;;;;;5072896;28;20229;-17
2022/07/02 04:12:36;;;;;;;2.67;1.70;;;;;;;;;;5075826;28;20236;-17
2022/07/02 04:15:06;;;;;;;2.42;1.77;;;;;;;;;;5074008;28;20224;-15
2022/07/02 04:17:33;;;;;;;3.88;2.20;;;;;;;;;;5083518;28;20290;-16
2022/07/02 04:20:01;;;;;;;4.38;1.98;;;;;;;;;;5082146;28;20232;-17
2022/07/02 04:22:28;;;;;;;2.95;1.92;;;;;;;;;;5084388;28;20583;-16
2022/07/02 04:24:56;;;;;;;2.50;1.70;;;;;;;;;;5092885;28;20224;-16
2022/07/02 04:27:23;;;;;;;2.28;1.65;;;;;;;;;;5082884;28;20712;-16
2022/07/02 04:29:50;;;;;;;3.25;1.70;;;;;;;;;;5082639;28;21029;-16
2022/07/02 04:32:19;;;;;;;2.95;1.80;;;;;;;;;;5088839;28;20233;-17
2022/07/02 04:34:46;;;;;;;4.55;2.20;;;;;;;;;;5077378;28;20229;-15
2022/07/02 04:37:14;;;;;;;2.38;1.60;;;;;;;;;;5076407;28;20245;-17
2022/07/02 04:39:41;;;;;;;3.50;1.60;;;;;;;;;;5072450;28;20237;-17
2022/07/02 04:42:08;;;;;;;3.80;1.70;;;;;;;;;;5085790;28;20233;-16
2022/07/02 04:44:36;;;;;;;3.92;1.80;;;;;;;;;;5072094;28;20222;-13
2022/07/02 04:47:07;;;;;;;4.13;1.60;;;;;;;;;;5086404;28;20338;-16
2022/07/02 04:49:36;;;;;;;4.05;1.55;;;;;;;;;;5086431;28;20993;-17
2022/07/02 04:52:05;;;;;;;2.10;1.60;;;;;;;;;;5090935;28;20230;-15
2022/07/02 04:54:32;;;;;;;3.63;1.65;;;;;;;;;;5081322;28;20631;-17
2022/07/02 04:56:59;;;;;;;3.45;1.85;;;;;;;;;;5076576;28;20249;-17
2022/07/02 04:59:27;;;;;;;2.97;1.90;;;;;;;;;;5086001;28;20225;-15
2022/07/02 05:01:55;;;;;;;4.32;2.08;;;;;;;;;;5072333;28;20236;-16
2022/07/02 05:04:23;;;;;;;3.70;1.60;;;;;;;;;;5081975;28;20653;-16
2022/07/02 05:06:52;;;;;;;3.53;1.90;;;;;;;;;;5072398;28;20233;-17
2022/07/02 05:09:19;;;;;;;8.65;1.60;;;;;;;;;;5077268;28;20228;-16
2022/07/02 05:11:46;;;;;;;10.57;2.05;;;;;;;;;;5090780;28;20775;-17
2022/07/02 05:14:14;;;;;;;5.22;2.00;;;;;;;;;;5075036;28;20240;-14
2022/07/02 05:16:41;;;;;;;3.55;1.50;;;;;;;;;;5080239;28;20796;-15
2022/07/02 05:19:09;;;;;;;4.28;2.10;;;;;;;;;;5071510;28;20316;-16
2022/07/02 05:21:37;;;;;;;3.85;1.67;;;;;;;;;;5076613;28;20232;-17
2022/07/02 05:24:06;;;;;;;5.53;1.77;;;;;;;;;;5083389;28;20711;-17
2022/07/02 05:26:34;;;;;;;5.80;2.03;;;;;;;;;;5082308;28;20704;-16
2022/07/02 05:29:01;;;;;;;5.25;1.60;;;;;;;;;;5084749;28;20339;-17
2022/07/02 05:31:29;;;;;;;5.40;1.73;;;;;;;;;;5080133;28;20233;-16
2022/07/02 05:33:56;;;;;;;3.40;1.70;;;;;;;;;;5071781;28;20235;-17
2022/07/02 05:36:24;;;;;;;3.58;1.70;;;;;;;;;;5076681;28;20627;-17
2022/07/02 05:38:51;;;;;;;6.07;2.58;;;;;;;;;;5079927;28;20578;-15
2022/07/02 05:41:20;;;;;;;3.38;1.55;;;;;;;;;;5077361;28;20236;-16
2022/07/02 05:43:47;;;;;;;2.97;1.88;;;;;;;;;;5071677;28;20260;-16
2022/07/02 05:46:14;;;;;;;3.65;1.98;;;;;;;;;;5078936;28;20331;-17
2022/07/02 05:48:42;;;;;;;6.72;2.33;;;;;;;;;;5081120;28;20707;-16
2022/07/02 05:51:09;;;;;;;3.63;1.90;;;;;;;;;;5089966;28;20225;-16
2022/07/02 05:53:37;;;;;;;5.10;2.03;;;;;;;;;;5090819;28;20237;-16
2022/07/02 05:56:04;;;;;;;3.28;1.95;;;;;;;;;;5076999;28;20241;-17
2022/07/02 05:58:33;;;;;;;4.30;1.70;;;;;;;;;;5074238;28;20260;-15
2022/07/02 06:01:00;;;;;;;3.22;1.55;;;;;;;;;;5071315;28;20241;-16
2022/07/02 06:03:28;;;;;;;11.13;1.80;;;;;;;;;;5073213;28;20241;-14
2022/07/02 06:08:40;;;;;;;4.70;2.00;;;;;;;;;;5070671;28;20225;-17
2022/07/02 06:11:08;;;;;;;7.95;2.28;;;;;;;;;;5080831;28;20225;-15
2022/07/02 06:13:37;;;;;;;3.95;2.10;;;;;;;;;;5070588;28;20233;-16
2022/07/02 06:16:04;;;;;;;5.10;2.13;;;;;;;;;;5074562;28;21001;-16
2022/07/02 06:18:32;;;;;;;3.10;1.80;;;;;;;;;;5070310;28;20236;-16
2022/07/02 06:20:59;;;;;;;6.35;2.28;;;;;;;;;;5069979;28;20233;-16
2022/07/02 06:23:27;;;;;;;3.35;1.70;;;;;;;;;;5073408;28;20271;-17
2022/07/02 06:25:54;;;;;;;5.38;1.83;;;;;;;;;;5091735;28;20252;-16
2022/07/02 06:28:21;;;;;;;4.85;1.85;;;;;;;;;;5078043;28;20229;-16
2022/07/02 06:30:50;;;;;;;2.97;1.70;;;;;;;;;;5084733;28;20227;-16
2022/07/02 06:33:18;;;;;;;4.38;1.60;;;;;;;;;;5080605;28;20237;-16
2022/07/02 06:35:45;;;;;;;5.63;1.63;;;;;;;;;;5087305;28;20229;-17
2022/07/02 06:38:12;;;;;;;7.00;1.63;;;;;;;;;;5070182;28;20237;-16
2022/07/02 06:40:40;;;;;;;3.50;1.75;;;;;;;;;;5082755;28;20236;-17
2022/07/02 06:43:07;;;;;;;6.53;1.63;;;;;;;;;;5070579;28;20225;-17
2022/07/02 06:45:35;;;;;;;3.20;1.67;;;;;;;;;;5070813;28;20281;-16
2022/07/02 06:48:03;;;;;;;7.13;2.10;;;;;;;;;;5070642;28;20232;-14
2022/07/02 06:50:31;;;;;;;4.15;1.40;;;;;;;;;;5071940;28;20229;-16
2022/07/02 06:53:02;;;;;;;4.63;1.77;;;;;;;;;;5075601;28;20363;-17
2022/07/02 06:55:29;;;;;;;5.65;1.40;;;;;;;;;;5079727;28;20230;-16
2022/07/02 06:57:56;;;;;;;10.07;1.80;;;;;;;;;;5070255;28;20236;-17
2022/07/02 07:00:24;;;;;;;3.08;1.85;;;;;;;;;;5071813;28;20239;-17
2022/07/02 07:02:51;;;;;;;4.60;1.52;;;;;;;;;;5073853;28;20283;-16
2022/07/02 07:05:23;;;;;;;4.00;1.30;;;;;;;;;;5076690;28;20716;-17
2022/07/02 07:07:51;;;;;;;5.50;1.52;;;;;;;;;;5074885;28;20239;-17
2022/07/02 07:10:18;;;;;;;6.72;1.60;;;;;;;;;;5074272;28;20229;-17
2022/07/02 07:12:45;;;;;;;2.88;1.23;;;;;;;;;;5073553;28;20244;-16
2022/07/02 07:15:13;;;;;;;2.10;1.20;;;;;;;;;;5075130;28;20236;-14
2022/07/02 07:17:40;;;;;;;2.72;1.20;;;;;;;;;;5073556;28;20594;-15
2022/07/02 07:20:16;;;;;;;4.80;1.33;;;;;;;;;;5073682;28;20237;-16
2022/07/02 07:22:45;;;;;;;4.45;1.00;;;;;;;;;;5073324;28;21002;-16
2022/07/02 07:25:12;;;;;;;5.75;1.23;;;;;;;;;;5073579;28;20230;-17
2022/07/02 07:27:39;;;;;;;5.70;1.10;;;;;;;;;;5073389;28;20237;-16
2022/07/02 07:30:07;;;;;;;2.03;1.13;;;;;;;;;;5073569;28;20229;-15
2022/07/02 07:32:35;;;;;;;4.55;1.10;;;;;;;;;;5076998;28;20226;-17
2022/07/02 07:35:02;;;;;;;4.28;0.98;;;;;;;;;;5075908;28;20226;-16
2022/07/02 07:37:29;;;;;;;4.28;1.25;;;;;;;;;;5073773;28;20233;-17
2022/07/02 07:39:58;;;;;;;5.45;1.10;;;;;;;;;;5073879;28;20234;-17
2022/07/02 07:42:27;;;;;;;13.40;1.60;;;;;;;;;;5073359;28;20226;-15
2022/07/02 07:44:54;;;;;;;5.65;1.20;;;;;;;;;;5073447;28;20264;-15
2022/07/02 07:47:22;;;;;;;8.57;1.23;;;;;;;;;;5078514;28;20241;-17
2022/07/02 07:49:49;;;;;;;7.47;1.30;;;;;;;;;;5073708;28;20680;-17
2022/07/02 07:52:17;;;;;;;10.52;1.30;;;;;;;;;;5073559;28;20846;-16
2022/07/02 07:54:44;;;;;;;4.38;0.90;;;;;;;;;;5073686;28;20241;-17
2022/07/02 07:57:13;;;;;;;3.17;1.10;;;;;;;;;;5078849;28;20849;-17
2022/07/02 07:59:40;;;;;;;5.97;1.42;;;;;;;;;;5072941;28;20229;-15
2022/07/02 08:02:08;;;;;;;6.70;1.08;;;;;;;;;;5074700;28;20240;-16
2022/07/02 08:04:35;;;;;;;3.30;1.10;;;;;;;;;;5074308;28;20226;-16
2022/07/02 08:07:03;;;;;;;1.83;1.10;;;;;;;;;;5072764;28;20324;-16
2022/07/02 08:09:30;;;;;;;4.22;1.08;;;;;;;;;;5079708;28;20235;-16
2022/07/02 08:11:57;;;;;;;4.30;1.08;;;;;;;;;;5073218;28;20221;-17
2022/07/02 08:14:26;;;;;;;3.80;0.98;;;;;;;;;;5073170;28;20230;-16
2022/07/02 08:16:53;;;;;;;3.30;0.90;;;;;;;;;;5083662;28;20230;-17
2022/07/02 08:19:21;;;;;;;4.60;0.90;;;;;;;;;;5082871;28;20260;-16
2022/07/02 08:21:48;;;;;;;4.82;1.00;;;;;;;;;;5076783;28;20233;-17
2022/07/02 08:24:15;;;;;;;2.03;0.73;;;;;;;;;;5092156;28;20233;-16
2022/07/02 08:26:43;;;;;;;4.07;0.80;;;;;;;;;;5090858;28;20233;-17
2022/07/02 08:29:10;;;;;;;5.93;0.90;;;;;;;;;;5073406;28;20277;-17
2022/07/02 08:31:39;;;;;;;3.15;1.02;;;;;;;;;;5086663;28;20221;-17
2022/07/02 08:34:07;;;;;;;5.80;1.02;;;;;;;;;;5090574;28;20240;-17
2022/07/02 08:36:34;;;;;;;1.88;0.60;;;;;;;;;;5082062;28;20233;-17
2022/07/02 08:39:02;;;;;;;2.80;0.90;;;;;;;;;;5077832;28;20248;-16
2022/07/02 08:41:29;;;;;;;1.67;0.70;;;;;;;;;;5073173;28;20229;-18
2022/07/02 08:43:56;;;;;;;1.88;0.70;;;;;;;;;;5073548;28;20260;-16
2022/07/02 08:46:24;;;;;;;2.28;0.70;;;;;;;;;;5078961;28;20248;-16
2022/07/02 08:48:53;;;;;;;4.13;0.80;;;;;;;;;;5073296;28;20233;-15
2022/07/02 08:51:20;;;;;;;1.63;0.68;;;;;;;;;;5082272;28;20225;-16
2022/07/02 08:53:47;;;;;;;1.45;0.80;;;;;;;;;;5082912;28;20310;-15
2022/07/02 08:56:15;;;;;;;3.15;0.70;;;;;;;;;;5084099;28;20225;-16
2022/07/02 08:58:44;;;;;;;4.50;0.80;;;;;;;;;;5081848;28;20229;-15
2022/07/02 09:01:12;;;;;;;4.32;0.93;;;;;;;;;;5087301;28;20999;-16
2022/07/02 09:03:39;;;;;;;5.93;1.05;;;;;;;;;;5079235;28;21116;-16
2022/07/02 09:06:08;;;;;;;2.55;0.75;;;;;;;;;;5072264;28;20237;-17
2022/07/02 09:08:36;;;;;;;2.10;0.73;;;;;;;;;;5078318;28;20767;-17
2022/07/02 09:11:03;;;;;;;2.63;0.93;;;;;;;;;;5072835;28;20225;-17
2022/07/02 09:13:30;;;;;;;3.42;0.90;;;;;;;;;;5082347;28;20279;-16
2022/07/02 09:15:58;;;;;;;4.03;0.95;;;;;;;;;;5074844;28;20236;-17
2022/07/02 09:18:25;;;;;;;1.55;0.73;;;;;;;;;;5076410;28;21105;-16
2022/07/02 09:20:52;;;;;;;3.00;1.00;;;;;;;;;;5082369;28;20234;-13
2022/07/02 09:23:22;;;;;;;3.00;0.82;;;;;;;;;;5080625;28;20233;-15
2022/07/02 09:25:49;;;;;;;4.40;1.02;;;;;;;;;;5075952;28;20566;-17
2022/07/02 09:28:17;;;;;;;1.98;0.80;;;;;;;;;;5073298;28;20226;-16
2022/07/02 09:30:44;;;;;;;2.20;0.80;;;;;;;;;;5092448;28;20229;-17
2022/07/02 09:33:31;;;;;;;4.97;0.90;;;;;;;;;;5072185;28;20325;-16
2022/07/02 09:35:59;;;;;;;1.80;0.85;;;;;;;;;;5072260;28;20863;-16
2022/07/02 09:38:28;;;;;;;3.33;0.70;;;;;;;;;;5071474;28;20233;-17
2022/07/02 09:40:56;;;;;;;2.22;1.00;;;;;;;;;;5072523;28;20234;-16
2022/07/02 09:43:27;;;;;;;4.60;0.90;;;;;;;;;;5072471;28;20230;-16
2022/07/02 09:45:54;;;;;;;1.77;0.63;;;;;;;;;;5071955;28;20237;-17
2022/07/02 09:48:22;;;;;;;2.67;0.85;;;;;;;;;;5080199;28;20350;-17
2022/07/02 09:50:49;;;;;;;4.47;0.80;;;;;;;;;;5076322;28;20926;-16
2022/07/02 09:53:17;;;;;;;3.15;0.70;;;;;;;;;;5071367;28;20234;-16
2022/07/02 09:55:49;;;;;;;2.15;1.00;;;;;;;;;;5071638;28;20233;-17
2022/07/02 09:58:23;;;;;;;2.35;0.70;;;;;;;;;;5073574;28;20341;-16
2022/07/02 10:00:50;;;;;;;2.60;0.82;;;;;;;;;;5078078;28;20246;-17
2022/07/02 10:03:17;;;;;;;1.83;0.90;;;;;;;;;;5083486;28;20240;-17
2022/07/02 10:05:45;;;;;;;2.78;1.10;;;;;;;;;;5083287;28;20619;-17
2022/07/02 10:08:13;;;;;;;3.95;0.70;;;;;;;;;;5077038;28;20233;-17
2022/07/02 10:10:40;;;;;;;2.28;0.95;;;;;;;;;;5081896;28;20232;-17
2022/07/02 10:13:09;;;;;;;2.90;0.90;;;;;;;;;;5071357;28;20244;-16
2022/07/02 10:15:43;;;;;;;2.45;0.70;;;;;;;;;;5075957;28;20225;-16
2022/07/02 10:18:10;;;;;;;2.50;1.00;;;;;;;;;;5089426;28;20228;-15
2022/07/02 10:20:38;;;;;;;3.50;0.70;;;;;;;;;;5082292;28;20237;-16
2022/07/02 10:23:06;;;;;;;3.45;0.70;;;;;;;;;;5076935;28;20233;-14
2022/07/02 10:25:33;;;;;;;2.90;0.90;;;;;;;;;;5071593;28;20229;-16
2022/07/02 10:28:01;;;;;;;2.15;0.82;;;;;;;;;;5071083;28;20232;-16
2022/07/02 10:30:30;;;;;;;1.25;0.70;;;;;;;;;;5084688;28;20225;-17
2022/07/02 10:32:59;;;;;;;3.30;0.73;;;;;;;;;;5071082;28;20326;-16
2022/07/02 10:35:26;;;;;;;3.47;0.80;;;;;;;;;;5079093;28;21010;-16
2022/07/02 10:37:57;;;;;;;2.75;0.85;;;;;;;;;;5076587;28;20225;-16
2022/07/02 10:40:24;;;;;;;4.70;0.70;;;;;;;;;;5090352;28;20237;-16
2022/07/02 10:42:52;;;;;;;1.30;0.80;;;;;;;;;;5088370;28;20700;-17
2022/07/02 10:45:19;;;;;;;2.45;0.80;;;;;;;;;;5081991;28;20299;-15
2022/07/02 10:47:57;;;;;;;2.15;0.70;;;;;;;;;;5088106;28;20253;-16
2022/07/02 10:50:28;;;;;;;3.20;0.80;;;;;;;;;;5081432;28;20225;-16
2022/07/02 10:52:55;;;;;;;1.67;0.90;;;;;;;;;;5079286;28;20232;-17
2022/07/02 10:55:27;;;;;;;2.90;0.70;;;;;;;;;;5091048;28;20239;-15
2022/07/02 10:57:58;;;;;;;1.92;0.68;;;;;;;;;;5090914;28;20332;-17
2022/07/02 11:00:29;;;;;;;2.72;0.90;;;;;;;;;;5080616;28;20248;-16
2022/07/02 11:02:58;;;;;;;1.38;0.70;;;;;;;;;;5089756;28;20229;-17
2022/07/02 11:05:25;;;;;;;2.83;1.10;;;;;;;;;;5090962;28;20298;-15
2022/07/02 11:07:53;;;;;;;3.63;1.25;;;;;;;;;;5075332;28;20233;-17
2022/07/02 11:10:27;;;;;;;1.58;0.70;;;;;;;;;;5078184;28;20232;-16
2022/07/02 11:12:57;;;;;;;1.63;0.80;;;;;;;;;;5090909;28;20232;-17
2022/07/02 11:15:26;;;;;;;2.08;0.60;;;;;;;;;;5084897;28;20225;-16
2022/07/02 11:17:54;;;;;;;2.15;0.60;;;;;;;;;;5077238;28;20230;-15
2022/07/02 11:20:26;;;;;;;2.22;0.73;;;;;;;;;;5075804;28;20363;-15
2022/07/02 11:22:55;;;;;;;0.60;0.43;;;;;;;;;;5080516;28;20280;-16
2022/07/02 11:25:22;;;;;;;1.15;0.63;;;;;;;;;;5085141;28;20251;-15
2022/07/02 11:27:56;;;;;;;3.08;0.70;;;;;;;;;;5090899;28;20237;-15
2022/07/02 11:30:25;;;;;;;1.75;0.80;;;;;;;;;;5072994;28;20240;-16
2022/07/02 11:32:52;;;;;;;2.22;1.10;;;;;;;;;;5084336;28;21126;-17
2022/07/02 11:35:20;;;;;;;2.22;0.70;;;;;;;;;;5070197;28;20241;-16
2022/07/02 11:37:48;;;;;;;1.77;0.70;;;;;;;;;;5070249;28;20222;-16
2022/07/02 11:40:19;;;;;;;2.10;0.65;;;;;;;;;;5070164;28;20248;-16
2022/07/02 11:42:46;;;;;;;0.85;0.50;;;;;;;;;;5069983;28;20234;-17
2022/07/02 11:45:13;;;;;;;1.45;0.63;;;;;;;;;;5079694;28;20229;-16
2022/07/02 11:47:46;;;;;;;4.78;0.88;;;;;;;;;;5079931;28;20230;-17
2022/07/02 11:50:13;;;;;;;2.08;0.80;;;;;;;;;;5071480;28;20239;-14
2022/07/02 11:52:40;;;;;;;1.75;0.68;;;;;;;;;;5075493;28;20226;-15
2022/07/02 11:55:15;;;;;;;3.33;0.88;;;;;;;;;;5079024;28;20229;-17
2022/07/02 11:57:43;;;;;;;1.48;0.75;;;;;;;;;;5077595;28;20236;-17
2022/07/02 12:00:11;;;;;;;1.55;0.80;;;;;;;;;;5086878;28;20242;-16
2022/07/02 12:02:39;;;;;;;1.25;0.60;;;;;;;;;;5079493;28;20232;-17
2022/07/02 12:05:16;;;;;;;6.00;0.90;;;;;;;;;;5079476;28;20232;-17
2022/07/02 12:07:43;;;;;;;2.90;0.75;;;;;;;;;;5093792;28;20232;-15
2022/07/02 12:10:11;;;;;;;1.85;0.90;;;;;;;;;;5088315;28;20692;-16
2022/07/02 12:12:40;;;;;;;1.70;0.68;;;;;;;;;;5093703;28;20945;-16
2022/07/02 12:15:08;;;;;;;1.50;0.65;;;;;;;;;;5089793;28;20625;-16
2022/07/02 12:17:35;;;;;;;1.58;0.60;;;;;;;;;;5082663;28;20237;-16
2022/07/02 12:20:03;;;;;;;3.70;0.63;;;;;;;;;;5084771;28;20244;-17
2022/07/02 12:22:33;;;;;;;2.45;0.57;;;;;;;;;;5083657;28;20229;-16
2022/07/02 12:25:01;;;;;;;2.10;0.70;;;;;;;;;;5072991;28;20233;-16
2022/07/02 12:27:29;;;;;;;2.63;0.60;;;;;;;;;;5072936;28;20230;-16
2022/07/02 12:30:11;;;;;;;2.47;0.57;;;;;;;;;;5077313;28;20233;-17
2022/07/02 12:32:39;;;;;;;2.90;0.68;;;;;;;;;;5072955;28;20298;-16
2022/07/02 12:35:07;;;;;;;1.42;0.50;;;;;;;;;;5072929;28;20233;-17
2022/07/02 12:37:35;;;;;;;1.75;0.80;;;;;;;;;;5087648;28;20236;-17
2022/07/02 12:40:04;;;;;;;1.05;0.52;;;;;;;;;;5082534;28;20723;-16
2022/07/02 12:42:33;;;;;;;1.40;0.63;;;;;;;;;;5077912;28;20229;-16
2022/07/02 12:45:01;;;;;;;0.70;0.40;;;;;;;;;;5073045;28;20226;-17
2022/07/02 12:47:31;;;;;;;1.85;0.63;;;;;;;;;;5077235;28;20732;-17
2022/07/02 12:49:59;;;;;;;1.38;0.60;;;;;;;;;;5072756;28;20699;-16
2022/07/02 12:52:28;;;;;;;1.38;0.50;;;;;;;;;;5083637;28;20256;-17
2022/07/02 12:54:56;;;;;;;1.92;0.38;;;;;;;;;;5072768;28;20260;-17
2022/07/02 12:57:23;;;;;;;1.60;0.40;;;;;;;;;;5076496;28;20230;-16
2022/07/02 12:59:52;;;;;;;1.55;0.52;;;;;;;;;;5072743;28;20233;-16
2022/07/02 13:02:21;;;;;;;1.67;0.68;;;;;;;;;;5090827;28;20236;-14
2022/07/02 13:04:50;;;;;;;0.80;0.47;;;;;;;;;;5078111;28;20260;-16
2022/07/02 13:07:18;;;;;;;1.08;0.52;;;;;;;;;;5082371;28;21108;-16
2022/07/02 13:09:45;;;;;;;2.88;1.17;;;;;;;;;;5072316;28;20225;-17
2022/07/02 13:12:14;;;;;;;4.63;0.68;;;;;;;;;;5080063;28;20255;-16
2022/07/02 13:14:41;;;;;;;1.73;0.75;;;;;;;;;;5076956;28;20229;-14
2022/07/02 13:17:09;;;;;;;1.38;0.55;;;;;;;;;;5082672;28;20230;-16
2022/07/02 13:19:58;;;;;;;0.65;0.40;;;;;;;;;;5086351;28;20239;-16
2022/07/02 13:22:26;;;;;;;0.93;0.43;;;;;;;;;;5072287;28;20239;-17
2022/07/02 13:24:53;;;;;;;3.00;0.52;;;;;;;;;;5073035;28;20320;-17
2022/07/02 13:27:21;;;;;;;1.35;0.47;;;;;;;;;;5073526;28;20234;-16
2022/07/02 13:29:48;;;;;;;1.40;0.50;;;;;;;;;;5085797;28;20347;-16
2022/07/02 13:32:16;;;;;;;0.75;0.43;;;;;;;;;;5077741;28;20230;-17
2022/07/02 13:34:43;;;;;;;0.85;0.40;;;;;;;;;;5092191;28;20240;-17
2022/07/02 13:37:12;;;;;;;1.95;0.40;;;;;;;;;;5075922;28;20237;-16
2022/07/02 13:39:42;;;;;;;1.17;0.40;;;;;;;;;;5071940;28;20816;-15
2022/07/02 13:42:09;;;;;;;1.25;0.55;;;;;;;;;;5071801;28;20247;-16
2022/07/02 13:44:36;;;;;;;0.88;0.40;;;;;;;;;;5077510;28;20243;-16
2022/07/02 13:47:04;;;;;;;0.80;0.40;;;;;;;;;;5079791;28;21045;-17
2022/07/02 13:49:31;;;;;;;1.85;0.60;;;;;;;;;;5089917;28;20225;-17
2022/07/02 13:51:59;;;;;;;1.40;0.70;;;;;;;;;;5082057;28;20225;-17
2022/07/02 13:54:28;;;;;;;2.53;0.68;;;;;;;;;;5071563;28;20230;-16
2022/07/02 13:56:55;;;;;;;0.65;0.40;;;;;;;;;;5071644;28;20232;-15
2022/07/02 13:59:22;;;;;;;2.88;0.60;;;;;;;;;;5078900;28;20225;-15
2022/07/02 14:01:50;;;;;;;1.00;0.32;;;;;;;;;;5085904;28;20253;-16
2022/07/02 14:04:17;;;;;;;1.40;0.60;;;;;;;;;;5078793;28;20791;-16
2022/07/02 14:06:44;;;;;;;1.13;0.40;;;;;;;;;;5085871;28;20238;-17
2022/07/02 14:09:12;;;;;;;1.02;0.43;;;;;;;;;;5071165;28;20241;-16
2022/07/02 14:11:41;;;;;;;1.77;0.50;;;;;;;;;;5085177;28;20236;-17
2022/07/02 14:14:08;;;;;;;2.47;0.43;;;;;;;;;;5081259;28;20228;-17
2022/07/02 14:16:36;;;;;;;1.83;0.55;;;;;;;;;;5088033;28;20235;-16
2022/07/02 14:19:03;;;;;;;1.00;0.40;;;;;;;;;;5080453;28;20948;-17
2022/07/02 14:21:31;;;;;;;0.55;0.35;;;;;;;;;;5075865;28;20244;-16
2022/07/02 14:23:59;;;;;;;1.58;0.50;;;;;;;;;;5070901;28;20722;-17
2022/07/02 14:26:26;;;;;;;1.08;0.52;;;;;;;;;;5085121;28;20228;-17
2022/07/02 14:28:55;;;;;;;1.05;0.45;;;;;;;;;;5071139;28;20237;-15
2022/07/02 14:31:22;;;;;;;1.25;0.50;;;;;;;;;;5079834;28;20235;-16
2022/07/02 14:33:50;;;;;;;1.38;0.50;;;;;;;;;;5091183;28;20322;-17
2022/07/02 14:36:18;;;;;;;0.98;0.60;;;;;;;;;;5091397;28;20236;-16
2022/07/02 14:38:45;;;;;;;0.63;0.50;;;;;;;;;;5083752;28;20977;-17
2022/07/02 14:44:01;;;;;;;1.70;0.50;;;;;;;;;;5084180;28;20220;-15
2022/07/02 14:46:29;;;;;;;3.03;0.50;;;;;;;;;;5075714;28;20245;-17
2022/07/02 14:48:56;;;;;;;0.95;0.50;;;;;;;;;;5071454;28;20236;-17
2022/07/02 14:51:23;;;;;;;1.10;0.63;;;;;;;;;;5084925;28;20221;-16
2022/07/02 14:53:51;;;;;;;1.30;0.65;;;;;;;;;;5072550;28;20244;-17
2022/07/02 14:56:19;;;;;;;1.30;0.60;;;;;;;;;;5088667;28;20750;-15